Nearby METAR Reports

 

KMTN - Baltimore/Martin, Maryland, USA
Distance from station: SSE 8mi, 13km
Updated: Sun, 26-Oct-2014 1:00am EDT
Clear
Clear
 Wind from calm
Wind: Calm
Temperature: 61°F , 16°C
Dew Point: 46°F , 8°C
Humidity: 59%
Barometer: 29.67 inHg , 1004.7 hPa
Clouds: Clear
Visibility: 10 miles , 16 km
2014/10/26 05:00 KMTN 260500Z AUTO 00000KT 10SM CLR 16/08 A2967 RMK AO2
KDMH - Baltimore/Dwntwn, Maryland, USA
Distance from station: SW 12mi, 19km
Updated: Sun, 26-Oct-2014 12:54am EDT

 
Temperature: 61°F , 16°C
Dew Point: 45°F , 7°C
Humidity: 55%
Barometer: 29.66 inHg , 1004.4 hPa
2014/10/26 04:54 KDMH 260454Z AUTO 16/07 A2966 RMK AO1 SLP043 T01560067 402170100
 
KBWI - Balto/Wash Intl, Maryland, USA
Distance from station: SSW 20mi, 33km
Updated: Sun, 26-Oct-2014 12:54am EDT
Clear
Clear
 Wind from SW
Wind: SW 8 mph , 13 km/h
Temperature: 61°F , 16°C
Dew Point: 45°F , 7°C
Humidity: 55%
Barometer: 29.66 inHg , 1004.4 hPa
Clouds: Clear
Visibility: 10 miles , 16 km
2014/10/26 04:54 KBWI 260454Z 23007KT 10SM CLR 16/07 A2966 RMK AO2 SLP044 T01560067 402170061
KDMW - Carroll Cnty, Maryland, USA
Distance from station: WNW 30mi, 48km
Updated: Sun, 26-Oct-2014 1:00am EDT
Partly cloudy
Partly cloudy
 Wind from SW
Wind: SW 7 mph , 11 km/h
Temperature: 61°F , 16°C
Dew Point: 48°F , 9°C
Humidity: 63%
Barometer: 29.66 inHg , 1004.4 hPa
Clouds: Partly cloudy
Visibility: 10 miles , 16 km
Cloud details: Partly cloudy 9000 ft
2014/10/26 05:00 KDMW 260500Z AUTO 23006KT 10SM SCT090 16/09 A2966 RMK AO2
 
KNAK - Annapolis/Naval, Maryland, USA
Distance from station: S 30mi, 48km
Updated: Sun, 26-Oct-2014 12:54am EDT
Clear
Clear
 Wind from WSW
Wind: WSW 5 mph , 7 km/h
Temperature: 55°F , 13°C
Dew Point: 45°F , 7°C
Humidity: 67%
Barometer: 29.67 inHg , 1004.7 hPa
Clouds: Clear
Visibility: 10 miles , 16 km
2014/10/26 04:54 KNAK 260454Z AUTO 24004KT 10SM CLR 13/07 A2967 RMK AO2 SLP050 T01330067 402170078
KW29 - Stevensville, Maryland, USA
Distance from station: SSE 31mi, 50km
Updated: Sun, 26-Oct-2014 1:01am EDT

 Wind from WSW
Wind: WSW 8 mph , 13 km/h
Temperature: 59°F , 15°C
Dew Point: 46°F , 8°C
Humidity: 63%
Barometer: 29.67 inHg , 1004.7 hPa
Visibility: 10 miles , 16 km
2014/10/26 05:01 KW29 260501Z AUTO 25007KT 10SM 15/08 A2967 RMK AO1
 
KCGS - College Park, Maryland, USA
Distance from station: SW 38mi, 61km
Updated: Sun, 26-Oct-2014 1:00am EDT
Clear
Clear
 Wind from calm
Wind: Calm
Temperature: 50°F , 10°C
Dew Point: 46°F , 8°C
Humidity: 88%
Barometer: 29.68 inHg , 1005.1 hPa
Clouds: Clear
Visibility: 10 miles , 16 km
2014/10/26 05:00 KCGS 260500Z AUTO 00000KT 10SM CLR 10/08 A2968 RMK AO1
KGAI - Gaithersburg, Maryland, USA
Distance from station: WSW 40mi, 65km
Updated: Sun, 26-Oct-2014 12:55am EDT
Clear
Clear
 Wind from W
Wind: W 6 mph , 9 km/h
Temperature: 57°F , 14°C
Dew Point: 46°F , 8°C
Humidity: 67%
Barometer: 29.71 inHg , 1006.1 hPa
Clouds: Clear
Visibility: 10 miles , 16 km
2014/10/26 04:55 KGAI 260455Z 27005KT 10SM CLR 14/08 A2971 RMK AO1
 
KTHV - York, Pennsylvania, USA
Distance from station: NNW 40mi, 65km
Updated: Sun, 26-Oct-2014 12:53am EDT
Clear
Clear
 Wind from W
Wind: W 6 mph , 9 km/h
Temperature: 61°F , 16°C
Dew Point: 48°F , 9°C
Humidity: 63%
Barometer: 29.64 inHg , 1003.7 hPa
Clouds: Clear
Visibility: 10 miles , 16 km
2014/10/26 04:53 KTHV 260453Z AUTO 26005KT 10SM CLR 16/09 A2964 RMK AO2 SLP036 T01610094 402110028
KFDK - Frederick, Maryland, USA
Distance from station: W 47mi, 75km
Updated: Sun, 26-Oct-2014 1:00am EDT
Mostly cloudy
Mostly cloudy
 Wind from SSE
Wind: SSE 3 mph , 6 km/h
Temperature: 64°F , 18°C
Dew Point: 46°F , 8°C
Humidity: 52%
Barometer: 29.70 inHg , 1005.8 hPa
Clouds: Mostly cloudy
Visibility: 10 miles , 16 km
Cloud details: Partly cloudy 5000 ft
Mostly cloudy 5500 ft
2014/10/26 05:00 KFDK 260500Z AUTO 15003KT 10SM SCT050 BKN055 18/08 A2970 RMK AO2
 
KESN - Easton/Newnam, Maryland, USA
Distance from station: SSE 48mi, 78km
Updated: Sun, 26-Oct-2014 1:14am EDT
Clear
Clear
 Wind from calm
Wind: Calm
Temperature: 59°F , 15°C
Dew Point: 48°F , 9°C
Humidity: 68%
Barometer: 29.72 inHg , 1006.4 hPa
Clouds: Clear
Visibility: 10 miles , 16 km
2014/10/26 05:14 KESN 260514Z AUTO 00000KT 10SM CLR 15/09 A2972 RMK AO2 T01450091
KDCA - Washington/Natl, Washington D.c., USA
Distance from station: SW 49mi, 79km
Updated: Sun, 26-Oct-2014 12:52am EDT
Clear
Clear
 Wind from S
Wind: S 12 mph , 19 km/h
Temperature: 59°F , 15°C
Dew Point: 48°F , 9°C
Humidity: 68%
Barometer: 29.69 inHg , 1005.4 hPa
Clouds: Clear
Visibility: 10 miles , 16 km
2014/10/26 04:52 KDCA 260452Z 18010KT 10SM CLR 15/09 A2969 RMK AO2 SLP054 T01500089 402330094 $
 
KLNS - Lancaster, Pennsylvania, USA
Distance from station: N 49mi, 79km
Updated: Sun, 26-Oct-2014 12:53am EDT
Overcast
Overcast
 Wind from W
Wind: W 6 mph , 9 km/h
Temperature: 59°F , 15°C
Dew Point: 48°F , 9°C
Humidity: 68%
Barometer: 29.63 inHg , 1003.4 hPa
Clouds: Overcast
Visibility: 10 miles , 16 km
Cloud details: Overcast 6500 ft
2014/10/26 04:53 KLNS 260453Z AUTO 26005KT 10SM OVC065 15/09 A2963 RMK AO2 RAB0359E03 SLP031 P0000 T01500089 402000056
KILG - Wilmington, Delaware, USA
Distance from station: ENE 50mi, 81km
Updated: Sun, 26-Oct-2014 12:51am EDT
Mostly cloudy
Mostly cloudy
 Wind from WSW
Wind: WSW 8 mph , 13 km/h
Temperature: 57°F , 14°C
Dew Point: 46°F , 8°C
Humidity: 67%
Barometer: 29.63 inHg , 1003.4 hPa
Clouds: Mostly cloudy
Visibility: 10 miles , 16 km
Cloud details: Partly cloudy 5500 ft
Mostly cloudy 7000 ft
Mostly cloudy 8500 ft
2014/10/26 04:51 KILG 260451Z 24007KT 10SM SCT055 BKN070 BKN085 14/08 A2963 RMK AO2 SLP035 T01440078 402110050